New Columbia, Illinois
Current Conditions -  °F | °C
As of 12:35 PM on Sunday 23 Nov 2014 (Local Time) from KM30 Reporting Station
Moderate Rain Moderate Rain  
Wind Chill: 56°   Ceiling: 1600
Heat Index: 56°   Visibility: 3mi
Dew Point: 56°   Wind: 3mph
Humidity: 100%   Direction: 120°ESE
Pressure: 29.54"   Gusts: NA
Location:  37.3798°N, 88.7652°W
Report Text: KM30 231835Z AUTO 12003KT 3SM RA OVC016 13/13 A2954 RMK AO2 P0011 T01320132
Loading
Personal Weather Stations






























Interactive Weather Map New forecast layout! Learn more

10-Day Weather Forecast

Advertisements
Track Severe Weather on mobile